createdAt,value
2023-04-27T00:02:42.275Z,5.93
2023-04-27T00:05:45.044Z,5.27
2023-04-27T00:08:47.535Z,6.25
2023-04-27T00:11:49.990Z,7.00
2023-04-27T00:14:52.556Z,4.72
2023-04-27T00:17:55.515Z,6.03
2023-04-27T00:20:58.855Z,5.50
2023-04-27T00:24:01.525Z,3.88
2023-04-27T00:27:04.027Z,4.47
2023-04-27T00:30:07.088Z,4.20
2023-04-27T00:33:09.964Z,6.93
2023-04-27T00:36:12.453Z,7.20
2023-04-27T00:39:17.131Z,4.60
2023-04-27T00:42:19.977Z,8.43
2023-04-27T00:45:26.771Z,5.20
2023-04-27T00:48:29.283Z,8.95
2023-04-27T00:51:32.221Z,6.05
2023-04-27T00:54:34.706Z,7.97
2023-04-27T00:57:37.380Z,5.40
2023-04-27T01:00:40.347Z,6.63
2023-04-27T01:03:42.990Z,5.95
2023-04-27T01:06:45.730Z,6.50
2023-04-27T01:09:48.458Z,6.87
2023-04-27T01:12:51.511Z,5.60
2023-04-27T01:15:54.015Z,4.97
2023-04-27T01:18:56.846Z,8.90
2023-04-27T01:22:00.378Z,5.63
2023-04-27T01:25:02.923Z,5.97
2023-04-27T01:28:06.866Z,4.57
2023-04-27T01:31:11.424Z,4.87
2023-04-27T01:34:14.061Z,6.07
2023-04-27T01:37:16.542Z,5.03
2023-04-27T01:40:19.406Z,6.97
2023-04-27T01:43:22.867Z,4.37
2023-04-27T01:46:25.491Z,7.40
2023-04-27T01:49:28.156Z,6.72
2023-04-27T01:52:31.982Z,3.88
2023-04-27T01:55:34.417Z,4.70
2023-04-27T01:58:37.851Z,3.20
2023-04-27T02:01:41.311Z,5.88
2023-04-27T02:04:45.251Z,3.65
2023-04-27T02:07:49.461Z,3.90
2023-04-27T02:10:51.895Z,6.22
2023-04-27T02:13:55.868Z,3.53
2023-04-27T02:17:06.899Z,6.40
2023-04-27T02:20:10.964Z,7.40
2023-04-27T02:23:13.679Z,4.43
2023-04-27T02:26:19.587Z,4.55
2023-04-27T02:29:22.781Z,8.32
2023-04-27T02:32:26.033Z,6.13
2023-04-27T02:35:28.501Z,7.22
2023-04-27T02:38:31.576Z,7.93
2023-04-27T02:41:34.059Z,7.05
2023-04-27T02:44:36.478Z,8.23
2023-04-27T02:47:39.059Z,5.30
2023-04-27T02:50:45.141Z,7.13
2023-04-27T02:53:48.179Z,4.68
2023-04-27T02:56:50.888Z,7.30
2023-04-27T02:59:53.651Z,7.03
2023-04-27T03:02:57.018Z,6.07
2023-04-27T03:05:59.529Z,8.25
2023-04-27T03:09:05.505Z,5.40
2023-04-27T03:12:08.158Z,5.55
2023-04-27T03:15:10.838Z,7.35
2023-04-27T03:18:13.328Z,10.65
2023-04-27T03:21:17.093Z,6.80
2023-04-27T03:24:19.559Z,9.80
2023-04-27T03:27:22.036Z,6.70
2023-04-27T03:30:26.483Z,5.53
2023-04-27T03:33:29.949Z,7.27
2023-04-27T03:36:32.457Z,8.15
2023-04-27T03:39:34.855Z,6.93
2023-04-27T03:42:37.731Z,7.07
2023-04-27T03:45:40.550Z,5.80
2023-04-27T03:48:43.994Z,8.05
2023-04-27T03:51:46.709Z,7.00
2023-04-27T03:54:50.817Z,5.93
2023-04-27T03:57:54.115Z,7.57
2023-04-27T04:00:57.366Z,5.65
2023-04-27T04:04:00.124Z,4.28
2023-04-27T04:07:02.743Z,5.85
2023-04-27T04:10:06.131Z,7.83
2023-04-27T04:13:09.114Z,6.15
2023-04-27T04:16:12.585Z,6.10
2023-04-27T04:19:15.482Z,4.33
2023-04-27T04:22:18.333Z,6.20
2023-04-27T04:25:22.294Z,4.90
2023-04-27T04:28:25.315Z,4.38
2023-04-27T04:31:28.107Z,5.33
2023-04-27T04:34:31.380Z,7.22
2023-04-27T04:37:35.448Z,7.10
2023-04-27T04:40:39.263Z,3.77
2023-04-27T04:43:42.305Z,5.53
2023-04-27T04:46:45.084Z,4.57
2023-04-27T04:49:47.597Z,5.70
2023-04-27T04:52:50.284Z,7.90
2023-04-27T04:55:52.804Z,7.82
2023-04-27T04:58:55.416Z,5.97
2023-04-27T05:01:58.199Z,5.15
2023-04-27T05:05:00.862Z,5.87
2023-04-27T05:08:03.503Z,5.60
2023-04-27T05:11:06.076Z,5.95
2023-04-27T05:14:08.703Z,5.25
2023-04-27T05:17:11.171Z,7.03
2023-04-27T05:20:13.763Z,4.30
2023-04-27T05:23:16.671Z,3.80
2023-04-27T05:26:21.599Z,4.90
2023-04-27T05:29:24.120Z,8.07
2023-04-27T05:32:27.777Z,6.60
2023-04-27T05:35:31.394Z,4.95
2023-04-27T05:38:36.070Z,6.78
2023-04-27T05:41:38.909Z,4.45
2023-04-27T05:44:41.714Z,7.23
2023-04-27T05:47:44.414Z,4.05
2023-04-27T05:50:47.046Z,8.38
2023-04-27T05:53:50.281Z,5.88
2023-04-27T05:56:52.907Z,6.90
2023-04-27T05:59:55.710Z,7.65
2023-04-27T06:02:58.391Z,11.73
2023-04-27T06:06:02.639Z,5.68
2023-04-27T06:09:05.705Z,7.53
2023-04-27T06:12:09.147Z,5.13
2023-04-27T06:15:11.804Z,4.05
2023-04-27T06:18:15.037Z,6.68
2023-04-27T06:21:18.183Z,7.80
2023-04-27T06:24:21.860Z,8.27
2023-04-27T06:27:24.252Z,6.90
2023-04-27T06:30:26.809Z,5.28
2023-04-27T06:33:31.458Z,4.47
2023-04-27T06:36:33.918Z,6.57
2023-04-27T06:39:37.035Z,4.40
2023-04-27T06:42:39.467Z,7.73
2023-04-27T06:45:42.856Z,5.68
2023-04-27T06:48:46.697Z,5.22
2023-04-27T06:51:49.651Z,9.48
2023-04-27T06:54:52.204Z,5.10
2023-04-27T06:57:54.646Z,7.57
2023-04-27T07:00:57.085Z,5.20
2023-04-27T07:03:59.842Z,6.03
2023-04-27T07:07:02.717Z,4.93
2023-04-27T07:10:05.924Z,5.90
2023-04-27T07:13:09.619Z,4.43
2023-04-27T07:16:13.016Z,6.20
2023-04-27T07:19:15.899Z,3.97
2023-04-27T07:22:18.567Z,5.22
2023-04-27T07:25:21.640Z,3.27
2023-04-27T07:28:24.187Z,3.80
2023-04-27T07:31:27.076Z,4.32
2023-04-27T07:34:41.130Z,3.42
2023-04-27T07:37:48.016Z,6.45
2023-04-27T07:40:51.252Z,4.47
2023-04-27T07:43:53.830Z,3.93
2023-04-27T07:46:58.591Z,3.40
2023-04-27T07:50:01.456Z,3.30
2023-04-27T07:53:04.222Z,3.58
2023-04-27T07:56:07.044Z,5.57
2023-04-27T07:59:10.117Z,8.10
2023-04-27T08:05:21.090Z,2.90
2023-04-27T08:08:24.634Z,4.72
2023-04-27T08:11:27.272Z,3.97
2023-04-27T08:14:29.788Z,5.93
2023-04-27T08:17:32.337Z,3.97
2023-04-27T08:20:35.050Z,5.00
2023-04-27T08:23:38.878Z,5.88
2023-04-27T08:26:41.842Z,3.10
2023-04-27T08:29:48.349Z,4.10
2023-04-27T08:32:51.485Z,3.38
2023-04-27T08:35:55.748Z,2.95
2023-04-27T08:38:58.179Z,2.10
2023-04-27T08:42:00.860Z,3.80
2023-04-27T08:45:07.221Z,2.50
2023-04-27T08:48:09.690Z,3.33
2023-04-27T08:51:16.173Z,4.53
2023-04-27T08:54:19.483Z,2.65
2023-04-27T08:57:22.059Z,3.27
2023-04-27T09:00:26.016Z,1.50
2023-04-27T09:03:37.859Z,3.35
2023-04-27T09:06:40.722Z,2.65
2023-04-27T09:09:44.629Z,3.22
2023-04-27T09:12:56.257Z,4.27
2023-04-27T09:15:58.858Z,3.23
2023-04-27T09:21:49.529Z,2.75
2023-04-27T09:24:53.440Z,1.58
2023-04-27T09:27:58.267Z,3.53
2023-04-27T09:31:03.298Z,2.77
2023-04-27T09:34:06.457Z,2.65
2023-04-27T09:37:10.337Z,2.72
2023-04-27T09:40:13.696Z,1.90
2023-04-27T09:43:16.852Z,4.30
2023-04-27T09:48:51.717Z,3.50
2023-04-27T09:51:59.150Z,4.23
2023-04-27T09:55:03.850Z,2.03
2023-04-27T09:58:34.931Z,4.03
2023-04-27T10:01:47.152Z,3.95
2023-04-27T10:05:05.233Z,3.07
2023-04-27T10:08:10.486Z,3.40
2023-04-27T10:11:19.175Z,3.17
2023-04-27T10:14:24.293Z,3.55
2023-04-27T10:17:37.081Z,1.92
2023-04-27T10:20:40.681Z,2.80
2023-04-27T10:23:51.211Z,4.47
2023-04-27T10:27:03.448Z,4.43
2023-04-27T10:30:11.662Z,4.93
2023-04-27T10:33:22.988Z,4.93
2023-04-27T10:36:35.149Z,3.90
2023-04-27T10:39:46.948Z,2.57
2023-04-27T10:42:51.103Z,2.65
2023-04-27T10:45:53.872Z,3.13
2023-04-27T10:48:57.075Z,4.28
2023-04-27T10:52:05.000Z,6.93
2023-04-27T10:55:21.788Z,2.57
2023-04-27T10:58:28.083Z,4.05
2023-04-27T11:01:35.575Z,2.85
2023-04-27T11:04:40.483Z,3.42
2023-04-27T11:07:43.179Z,3.63
2023-04-27T11:10:50.131Z,6.13
2023-04-27T11:13:53.624Z,3.45
2023-04-27T11:16:56.114Z,1.95
2023-04-27T11:19:58.878Z,3.08
2023-04-27T11:23:01.334Z,4.00
2023-04-27T11:26:17.062Z,2.10
2023-04-27T11:29:19.765Z,4.47
2023-04-27T11:32:24.032Z,3.45
2023-04-27T11:35:34.768Z,3.35
2023-04-27T11:38:37.306Z,3.77
2023-04-27T11:41:45.843Z,2.10
2023-04-27T11:44:56.611Z,2.97
2023-04-27T11:47:59.561Z,2.63
2023-04-27T11:51:02.687Z,1.95
2023-04-27T11:54:06.824Z,2.63
2023-04-27T11:57:10.171Z,2.93
2023-04-27T12:00:14.627Z,2.45
2023-04-27T12:03:17.956Z,5.63
2023-04-27T12:06:33.024Z,5.40
2023-04-27T12:09:36.227Z,3.70
2023-04-27T12:12:39.525Z,4.30
2023-04-27T12:15:42.807Z,3.75
2023-04-27T12:18:45.592Z,3.90
2023-04-27T12:21:48.638Z,4.70
2023-04-27T12:24:51.339Z,5.90
2023-04-27T12:27:54.009Z,5.13
2023-04-27T12:30:56.628Z,4.18
2023-04-27T12:33:59.231Z,4.47
2023-04-27T12:37:01.694Z,4.40
2023-04-27T12:40:09.077Z,1.87
2023-04-27T12:43:12.901Z,4.13
2023-04-27T12:46:15.431Z,3.70
2023-04-27T12:49:18.048Z,4.80
2023-04-27T12:52:20.815Z,2.78
2023-04-27T12:55:33.147Z,3.03
2023-04-27T12:58:37.056Z,2.70
2023-04-27T13:01:39.784Z,2.58
2023-04-27T13:04:42.490Z,2.00
2023-04-27T13:07:44.991Z,2.90
2023-04-27T13:10:47.582Z,3.93
2023-04-27T13:13:50.231Z,3.23
2023-04-27T13:16:52.714Z,2.38
2023-04-27T13:19:55.279Z,2.55
2023-04-27T13:22:57.934Z,4.03
2023-04-27T13:26:01.201Z,3.47
2023-04-27T13:29:04.889Z,3.83
2023-04-27T13:32:07.603Z,3.35
2023-04-27T13:35:10.784Z,3.67
2023-04-27T13:38:13.200Z,3.85
2023-04-27T13:41:16.753Z,3.23
2023-04-27T13:44:20.336Z,3.30
2023-04-27T13:47:23.095Z,3.53
2023-04-27T13:50:25.752Z,3.35
2023-04-27T13:53:28.639Z,3.55
2023-04-27T13:56:31.594Z,2.70
2023-04-27T13:59:34.063Z,2.50
2023-04-27T14:02:36.955Z,5.05
2023-04-27T14:05:39.535Z,2.15
2023-04-27T14:08:41.963Z,3.33
2023-04-27T14:11:55.722Z,2.97
2023-04-27T14:14:59.926Z,3.50
2023-04-27T14:18:06.417Z,3.72
2023-04-27T14:21:09.539Z,2.40
2023-04-27T14:24:12.062Z,3.80
2023-04-27T14:27:16.294Z,3.07
2023-04-27T14:30:18.842Z,3.50
2023-04-27T14:33:21.391Z,3.10
2023-04-27T14:36:23.763Z,5.57
2023-04-27T14:39:28.194Z,1.65
2023-04-27T14:42:31.754Z,3.47
2023-04-27T14:45:44.133Z,2.07
2023-04-27T14:48:53.155Z,4.40
2023-04-27T14:51:55.682Z,2.95
2023-04-27T14:54:59.376Z,4.35
2023-04-27T14:58:01.927Z,2.50
2023-04-27T15:01:04.399Z,5.17
2023-04-27T15:04:11.083Z,4.60
2023-04-27T15:07:13.787Z,3.83
2023-04-27T15:10:16.439Z,3.50
2023-04-27T15:13:18.947Z,2.77
2023-04-27T15:16:21.475Z,4.23
2023-04-27T15:19:23.989Z,7.38
2023-04-27T15:22:28.566Z,4.95
2023-04-27T15:25:31.300Z,2.83
2023-04-27T15:28:34.066Z,3.23
2023-04-27T15:31:37.195Z,3.63
2023-04-27T15:34:44.388Z,4.00
2023-04-27T15:37:46.918Z,2.70
2023-04-27T15:40:49.424Z,3.95
2023-04-27T15:43:52.313Z,3.13
2023-04-27T15:46:54.857Z,5.63
2023-04-27T15:49:58.415Z,3.03
2023-04-27T15:53:01.027Z,6.25
2023-04-27T15:56:03.694Z,4.43
2023-04-27T15:59:07.127Z,3.30
2023-04-27T16:02:09.745Z,4.10
2023-04-27T16:05:12.263Z,3.60
2023-04-27T16:08:14.657Z,2.53
2023-04-27T16:11:17.281Z,5.50
2023-04-27T16:14:19.766Z,2.83
2023-04-27T16:17:23.146Z,2.77
2023-04-27T16:20:28.909Z,2.20
2023-04-27T16:23:31.441Z,4.47
2023-04-27T16:26:34.228Z,2.88
2023-04-27T16:29:36.902Z,3.23
2023-04-27T16:32:39.440Z,4.23
2023-04-27T16:35:41.976Z,2.50
2023-04-27T16:38:44.827Z,5.28
2023-04-27T16:41:47.948Z,5.38
2023-04-27T16:44:51.302Z,3.30
2023-04-27T16:47:53.802Z,2.57
2023-04-27T16:50:56.679Z,3.83
2023-04-27T16:53:59.646Z,3.88
2023-04-27T16:57:02.189Z,3.17
2023-04-27T17:00:06.594Z,2.97
2023-04-27T17:03:09.871Z,3.60
2023-04-27T17:06:12.359Z,7.32
2023-04-27T17:09:15.296Z,3.75
2023-04-27T17:12:18.301Z,3.10
2023-04-27T17:15:20.761Z,3.53
2023-04-27T17:18:23.300Z,2.47
2023-04-27T17:21:27.531Z,5.30
2023-04-27T17:24:30.269Z,3.28
2023-04-27T17:27:32.698Z,2.92
2023-04-27T17:30:35.550Z,4.27
2023-04-27T17:33:39.311Z,3.30
2023-04-27T17:36:41.818Z,2.20
2023-04-27T17:39:44.312Z,6.78
2023-04-27T17:42:47.552Z,4.53
2023-04-27T17:45:50.711Z,3.80
2023-04-27T17:48:53.165Z,2.77
2023-04-27T17:51:56.340Z,3.03
2023-04-27T17:54:59.099Z,4.40
2023-04-27T17:58:04.064Z,4.72
2023-04-27T18:01:09.131Z,4.07
2023-04-27T18:04:11.996Z,5.87
2023-04-27T18:07:14.550Z,8.77
2023-04-27T18:10:17.199Z,7.07
2023-04-27T18:13:19.673Z,4.60
2023-04-27T18:16:22.133Z,5.70
2023-04-27T18:19:25.141Z,4.83
2023-04-27T18:22:27.664Z,6.00
2023-04-27T18:25:30.058Z,4.03
2023-04-27T18:28:33.162Z,3.90
2023-04-27T18:31:36.737Z,5.80
2023-04-27T18:34:39.468Z,6.33
2023-04-27T18:37:42.203Z,5.22
2023-04-27T18:40:44.764Z,7.00
2023-04-27T18:43:47.243Z,4.15
2023-04-27T18:46:49.918Z,5.43
2023-04-27T18:49:52.775Z,5.93
2023-04-27T18:52:55.569Z,4.15
2023-04-27T18:55:58.650Z,5.78
2023-04-27T18:59:01.172Z,6.05
2023-04-27T19:02:04.042Z,6.33
2023-04-27T19:05:12.816Z,6.17
2023-04-27T19:08:16.189Z,5.32
2023-04-27T19:11:22.232Z,7.47
2023-04-27T19:14:24.944Z,8.52
2023-04-27T19:17:28.080Z,10.23
2023-04-27T19:20:30.890Z,8.97
2023-04-27T19:23:33.582Z,12.52
2023-04-27T19:26:36.730Z,11.75
2023-04-27T19:29:53.822Z,11.50
2023-04-27T19:32:56.314Z,13.80
2023-04-27T19:35:58.864Z,15.40
2023-04-27T19:39:01.757Z,16.23
2023-04-27T19:42:04.419Z,21.85
2023-04-27T19:45:07.493Z,14.55
2023-04-27T19:48:10.062Z,20.57
2023-04-27T19:51:12.547Z,15.73
2023-04-27T19:54:15.290Z,18.15
2023-04-27T19:57:18.514Z,20.50
2023-04-27T20:00:21.068Z,19.17
2023-04-27T20:03:24.470Z,18.80
2023-04-27T20:06:27.245Z,20.70
2023-04-27T20:09:29.761Z,21.80
2023-04-27T20:12:51.625Z,17.95
2023-04-27T20:15:54.984Z,13.60
2023-04-27T20:18:57.569Z,22.27
2023-04-27T20:22:02.969Z,17.43
2023-04-27T20:25:07.788Z,21.70
2023-04-27T20:28:10.411Z,17.38
2023-04-27T20:31:12.918Z,19.73
2023-04-27T20:34:24.125Z,16.83
2023-04-27T20:37:26.654Z,17.57
2023-04-27T20:40:29.500Z,21.80
2023-04-27T20:43:32.610Z,21.77
2023-04-27T20:46:35.861Z,17.75
2023-04-27T20:49:38.321Z,28.00
2023-04-27T20:52:41.073Z,22.50
2023-04-27T20:55:43.664Z,24.70
2023-04-27T20:58:46.352Z,18.70
2023-04-27T21:01:48.990Z,26.10
2023-04-27T21:04:52.076Z,19.57
2023-04-27T21:07:54.552Z,15.90
2023-04-27T21:10:57.570Z,18.13
2023-04-27T21:14:00.663Z,20.98
2023-04-27T21:17:03.199Z,16.85
2023-04-27T21:20:06.361Z,18.13
2023-04-27T21:23:08.883Z,19.87
2023-04-27T21:26:11.414Z,17.88
2023-04-27T21:29:14.066Z,12.90
2023-04-27T21:32:17.270Z,12.73
2023-04-27T21:35:19.784Z,14.57
2023-04-27T21:38:22.250Z,13.32
2023-04-27T21:41:24.746Z,12.20
2023-04-27T21:44:27.516Z,11.43
2023-04-27T21:47:30.039Z,9.75
2023-04-27T21:50:33.077Z,11.47
2023-04-27T21:53:35.582Z,11.93
2023-04-27T21:56:38.673Z,12.82
2023-04-27T21:59:41.385Z,12.30
2023-04-27T22:02:45.052Z,11.48
2023-04-27T22:05:49.069Z,12.90
2023-04-27T22:08:51.970Z,13.63
2023-04-27T22:11:54.451Z,14.48
2023-04-27T22:14:57.325Z,11.15
2023-04-27T22:17:59.800Z,12.30
2023-04-27T22:21:02.225Z,10.73
2023-04-27T22:24:04.995Z,13.57
2023-04-27T22:27:07.415Z,11.43
2023-04-27T22:30:10.403Z,14.13
2023-04-27T22:33:13.384Z,14.17
2023-04-27T22:36:16.179Z,13.85
2023-04-27T22:39:18.993Z,13.18
2023-04-27T22:42:21.462Z,9.60
2023-04-27T22:45:24.390Z,11.43
2023-04-27T22:48:27.271Z,15.80
2023-04-27T22:51:29.713Z,11.85
2023-04-27T22:54:32.134Z,12.63
2023-04-27T22:57:34.777Z,16.03
2023-04-27T23:00:37.378Z,11.23
2023-04-27T23:03:40.116Z,14.32
2023-04-27T23:06:43.415Z,12.27
2023-04-27T23:09:48.199Z,12.83
2023-04-27T23:12:50.845Z,12.50
2023-04-27T23:15:56.862Z,13.20
2023-04-27T23:18:59.419Z,13.07
2023-04-27T23:22:02.236Z,12.17
2023-04-27T23:25:04.970Z,13.52
2023-04-27T23:28:07.438Z,12.88
2023-04-27T23:31:10.566Z,12.23
2023-04-27T23:34:13.319Z,14.63
2023-04-27T23:37:16.412Z,13.25
2023-04-27T23:40:19.041Z,14.05
2023-04-27T23:43:21.694Z,12.40
2023-04-27T23:46:24.929Z,15.80
2023-04-27T23:49:27.390Z,14.07
2023-04-27T23:52:29.910Z,14.50
2023-04-27T23:55:34.751Z,13.07
2023-04-27T23:58:38.449Z,15.80
